createdAt,value
2019-02-15T00:03:55.939Z,88.83
2019-02-15T00:06:22.420Z,89.01
2019-02-15T00:08:48.978Z,89.01
2019-02-15T00:11:16.637Z,88.91
2019-02-15T00:13:43.330Z,88.90
2019-02-15T00:16:10.100Z,88.19
2019-02-15T00:18:38.528Z,87.89
2019-02-15T00:21:15.667Z,87.65
2019-02-15T00:23:42.409Z,87.36
2019-02-15T00:26:09.213Z,87.55
2019-02-15T00:28:35.895Z,87.78
2019-02-15T00:31:04.160Z,87.95
2019-02-15T00:33:30.768Z,88.75
2019-02-15T00:35:57.742Z,89.55
2019-02-15T00:38:24.835Z,89.81
2019-02-15T00:40:51.824Z,89.96
2019-02-15T00:43:22.665Z,90.04
2019-02-15T00:46:03.999Z,89.89
2019-02-15T00:48:31.442Z,89.25
2019-02-15T00:51:06.634Z,88.84
2019-02-15T00:53:54.192Z,88.36
2019-02-15T00:56:33.219Z,88.27
2019-02-15T00:59:05.235Z,89.40
2019-02-15T01:01:41.770Z,90.32
2019-02-15T01:04:10.350Z,89.74
2019-02-15T01:06:40.151Z,89.34
2019-02-15T01:09:25.443Z,89.75
2019-02-15T01:14:51.363Z,89.14
2019-02-15T01:17:21.776Z,90.00
2019-02-15T01:19:49.154Z,90.27
2019-02-15T01:22:15.800Z,90.13
2019-02-15T01:24:44.959Z,89.77
2019-02-15T01:27:24.821Z,90.64
2019-02-15T01:30:02.140Z,90.36
2019-02-15T01:32:47.564Z,90.50
2019-02-15T01:35:21.711Z,90.33
2019-02-15T01:38:02.152Z,89.53
2019-02-15T01:40:37.586Z,89.58
2019-02-15T01:43:15.025Z,89.86
2019-02-15T01:45:46.210Z,90.20
2019-02-15T01:48:13.766Z,90.34
2019-02-15T01:50:40.607Z,91.77
2019-02-15T01:53:08.017Z,92.70
2019-02-15T01:55:35.579Z,93.09
2019-02-15T01:58:04.582Z,93.87
2019-02-15T02:00:32.548Z,93.97
2019-02-15T02:03:01.432Z,94.48
2019-02-15T02:05:28.321Z,94.48
2019-02-15T02:07:58.558Z,95.03
2019-02-15T02:10:27.039Z,96.11
2019-02-15T02:12:54.153Z,96.49
2019-02-15T02:15:22.999Z,96.69
2019-02-15T02:17:52.222Z,96.83
2019-02-15T02:20:24.254Z,96.86
2019-02-15T02:22:51.350Z,96.58
2019-02-15T02:25:18.484Z,96.08
2019-02-15T02:27:45.668Z,95.86
2019-02-15T02:33:37.919Z,95.71
2019-02-15T02:36:07.079Z,97.06
2019-02-15T02:38:35.423Z,97.61
2019-02-15T02:41:03.696Z,97.44
2019-02-15T02:43:30.712Z,97.30
2019-02-15T02:46:00.269Z,97.65
2019-02-15T02:48:27.462Z,97.94
2019-02-15T02:50:54.681Z,98.26
2019-02-15T02:53:28.219Z,98.29
2019-02-15T02:55:55.067Z,97.71
2019-02-15T02:58:21.952Z,97.20
2019-02-15T03:00:48.793Z,97.55
2019-02-15T03:03:15.267Z,97.86
2019-02-15T03:05:42.658Z,97.62
2019-02-15T03:08:09.935Z,97.24
2019-02-15T03:10:37.511Z,96.76
2019-02-15T03:13:07.593Z,97.08
2019-02-15T03:15:37.715Z,97.05
2019-02-15T03:18:06.204Z,97.13
2019-02-15T03:20:38.498Z,97.82
2019-02-15T03:23:05.695Z,97.50
2019-02-15T03:25:36.227Z,96.70
2019-02-15T03:28:05.170Z,96.87
2019-02-15T03:30:32.947Z,96.76
2019-02-15T03:33:01.033Z,96.71
2019-02-15T03:35:28.279Z,96.27
2019-02-15T03:37:58.480Z,95.80
2019-02-15T03:40:28.876Z,94.79
2019-02-15T03:42:57.206Z,95.02
2019-02-15T03:45:24.826Z,95.30
2019-02-15T03:47:55.517Z,95.75
2019-02-15T03:50:25.330Z,96.72
2019-02-15T03:52:53.212Z,97.02
2019-02-15T03:55:24.392Z,97.05
2019-02-15T03:57:53.615Z,96.76
2019-02-15T04:00:22.281Z,96.49
2019-02-15T04:05:45.267Z,96.74
2019-02-15T04:08:13.704Z,96.79
2019-02-15T04:10:43.319Z,96.73
2019-02-15T04:13:12.202Z,96.56
2019-02-15T04:15:48.993Z,96.49
2019-02-15T04:18:16.754Z,96.08
2019-02-15T04:20:46.259Z,95.84
2019-02-15T04:23:13.230Z,96.06
2019-02-15T04:25:40.700Z,96.34
2019-02-15T04:50:41.104Z,94.90
2019-02-15T04:56:17.410Z,94.93
2019-02-15T05:07:36.545Z,95.03
2019-02-15T05:10:09.876Z,94.73
2019-02-15T05:15:44.938Z,94.23
2019-02-15T05:21:40.598Z,94.12
2019-02-15T05:24:09.181Z,94.30
2019-02-15T05:26:36.924Z,94.19
2019-02-15T05:29:04.674Z,93.80
2019-02-15T05:31:33.519Z,93.86
2019-02-15T05:34:01.414Z,93.32
2019-02-15T05:36:30.104Z,93.26
2019-02-15T05:38:56.921Z,93.38
2019-02-15T05:41:24.354Z,92.98
2019-02-15T05:43:52.587Z,93.12
2019-02-15T05:46:20.387Z,93.53
2019-02-15T05:48:46.925Z,93.77
2019-02-15T05:51:13.181Z,93.93
2019-02-15T05:53:39.496Z,94.03
2019-02-15T05:56:05.794Z,93.72
2019-02-15T05:58:32.408Z,93.62
2019-02-15T06:00:58.676Z,93.62
2019-02-15T06:03:25.206Z,93.80
2019-02-15T06:05:51.729Z,93.77
2019-02-15T06:08:18.225Z,93.51
2019-02-15T06:10:44.454Z,93.29
2019-02-15T06:13:10.734Z,93.38
2019-02-15T06:15:36.995Z,93.51
2019-02-15T06:18:03.295Z,93.25
2019-02-15T06:20:29.573Z,92.74
2019-02-15T06:22:56.319Z,93.22
2019-02-15T06:25:22.543Z,93.39
2019-02-15T06:27:48.902Z,93.73
2019-02-15T06:30:15.210Z,93.49
2019-02-15T06:35:52.822Z,93.34
2019-02-15T06:38:19.101Z,93.02
2019-02-15T06:40:45.652Z,93.03
2019-02-15T06:43:12.177Z,93.12
2019-02-15T06:45:38.558Z,93.33
2019-02-15T06:48:06.045Z,93.32
2019-02-15T06:50:35.727Z,93.20
2019-02-15T06:53:04.577Z,93.08
2019-02-15T06:55:32.855Z,92.98
2019-02-15T06:58:00.755Z,92.94
2019-02-15T07:00:33.618Z,93.32
2019-02-15T07:03:05.105Z,93.25
2019-02-15T07:05:34.196Z,93.00
2019-02-15T07:08:01.135Z,92.12
2019-02-15T07:10:27.928Z,91.28
2019-02-15T07:12:54.224Z,90.55
2019-02-15T07:15:20.515Z,90.67
2019-02-15T07:17:47.655Z,90.71
2019-02-15T07:20:14.901Z,90.49
2019-02-15T07:22:42.888Z,90.90
2019-02-15T07:25:10.734Z,91.41
2019-02-15T07:27:38.772Z,91.56
2019-02-15T07:30:09.810Z,91.58
2019-02-15T07:32:37.273Z,91.12
2019-02-15T07:35:06.201Z,91.09
2019-02-15T07:37:34.480Z,91.08
2019-02-15T07:40:01.728Z,91.16
2019-02-15T07:42:29.549Z,91.39
2019-02-15T07:44:57.419Z,91.29
2019-02-15T07:47:24.827Z,91.43
2019-02-15T07:49:52.161Z,91.70
2019-02-15T07:52:20.858Z,91.28
2019-02-15T07:54:48.177Z,90.29
2019-02-15T07:57:15.677Z,89.49
2019-02-15T07:59:43.116Z,89.37
2019-02-15T08:02:10.700Z,90.51
2019-02-15T08:04:38.066Z,91.25
2019-02-15T08:07:05.196Z,90.49
2019-02-15T08:09:32.650Z,90.05
2019-02-15T08:11:59.913Z,89.92
2019-02-15T08:14:27.991Z,89.17
2019-02-15T08:16:55.466Z,88.87
2019-02-15T08:19:22.588Z,88.49
2019-02-15T08:21:49.726Z,88.49
2019-02-15T08:24:16.983Z,88.94
2019-02-15T08:26:44.045Z,88.58
2019-02-15T08:29:15.197Z,88.37
2019-02-15T08:31:42.456Z,87.24
2019-02-15T08:34:10.212Z,86.82
2019-02-15T08:36:37.448Z,86.83
2019-02-15T08:39:18.065Z,87.11
2019-02-15T08:42:00.674Z,87.27
2019-02-15T08:44:15.718Z,87.18
2019-02-15T08:46:43.160Z,86.84
2019-02-15T08:49:10.614Z,86.50
2019-02-15T08:51:38.161Z,85.94
2019-02-15T08:54:05.357Z,85.96
2019-02-15T08:56:33.015Z,85.64
2019-02-15T08:59:02.052Z,85.11
2019-02-15T09:01:31.234Z,86.46
2019-02-15T09:03:59.251Z,85.29
2019-02-15T09:06:26.742Z,85.26
2019-02-15T09:08:54.189Z,84.25
2019-02-15T09:11:22.066Z,83.86
2019-02-15T09:13:50.544Z,83.46
2019-02-15T09:16:18.000Z,83.84
2019-02-15T09:18:46.378Z,82.82
2019-02-15T09:21:15.563Z,81.35
2019-02-15T09:23:43.019Z,81.27
2019-02-15T09:26:18.006Z,80.35
2019-02-15T09:28:41.107Z,79.03
2019-02-15T09:31:08.464Z,78.71
2019-02-15T09:33:35.617Z,78.38
2019-02-15T09:36:03.268Z,78.02
2019-02-15T09:38:30.681Z,77.46
2019-02-15T09:40:58.990Z,76.47
2019-02-15T09:43:26.651Z,76.16
2019-02-15T09:45:54.536Z,76.33
2019-02-15T09:48:21.881Z,75.94
2019-02-15T09:50:49.645Z,75.75
2019-02-15T09:53:17.070Z,75.23
2019-02-15T09:55:44.478Z,73.57
2019-02-15T09:58:11.817Z,73.97
2019-02-15T10:00:39.612Z,73.83
2019-02-15T10:03:07.580Z,73.63
2019-02-15T10:05:34.890Z,73.19
2019-02-15T10:08:02.266Z,72.36
2019-02-15T10:10:29.796Z,72.05
2019-02-15T10:12:57.097Z,72.52
2019-02-15T10:15:24.319Z,71.92
2019-02-15T10:17:51.846Z,71.33
2019-02-15T10:20:19.036Z,71.11
2019-02-15T10:22:46.469Z,71.21
2019-02-15T10:25:16.852Z,71.14
2019-02-15T10:27:44.159Z,71.53
2019-02-15T10:30:12.576Z,70.27
2019-02-15T10:32:42.366Z,69.06
2019-02-15T10:35:10.127Z,67.91
2019-02-15T10:37:37.705Z,66.54
2019-02-15T10:40:09.974Z,66.71
2019-02-15T10:42:37.549Z,66.09
2019-02-15T10:45:15.743Z,64.31
2019-02-15T10:47:43.413Z,63.85
2019-02-15T10:50:10.997Z,62.42
2019-02-15T10:52:38.511Z,59.98
2019-02-15T10:55:07.704Z,59.46
2019-02-15T10:57:35.957Z,59.56
2019-02-15T11:00:14.467Z,58.14
2019-02-15T11:02:41.965Z,57.67
2019-02-15T11:05:09.431Z,56.92
2019-02-15T11:07:36.923Z,57.08
2019-02-15T11:10:10.151Z,56.40
2019-02-15T11:12:39.070Z,55.89
2019-02-15T11:15:13.274Z,56.11
2019-02-15T11:17:40.513Z,57.53
2019-02-15T11:20:13.243Z,56.96
2019-02-15T11:22:40.285Z,57.32
2019-02-15T11:25:09.560Z,55.76
2019-02-15T11:27:36.613Z,56.72
2019-02-15T11:30:13.329Z,55.71
2019-02-15T11:32:39.832Z,57.65
2019-02-15T11:35:11.021Z,58.75
2019-02-15T11:37:38.257Z,57.97
2019-02-15T11:40:10.914Z,57.28
2019-02-15T11:42:45.970Z,57.53
2019-02-15T11:45:13.559Z,56.88
2019-02-15T11:47:40.537Z,58.64
2019-02-15T11:50:11.497Z,57.80
2019-02-15T11:52:48.186Z,57.66
2019-02-15T11:55:17.788Z,57.59
2019-02-15T11:57:45.620Z,58.76
2019-02-15T12:00:18.456Z,59.64
2019-02-15T12:02:45.291Z,58.69
2019-02-15T12:05:12.263Z,58.57
2019-02-15T12:07:39.151Z,57.53
2019-02-15T12:10:08.649Z,59.11
2019-02-15T12:12:36.827Z,56.82
2019-02-15T12:15:06.299Z,57.21
2019-02-15T12:17:33.690Z,56.79
2019-02-15T12:20:03.561Z,56.21
2019-02-15T12:22:30.336Z,56.34
2019-02-15T12:24:57.308Z,56.63
2019-02-15T12:27:24.057Z,55.70
2019-02-15T12:29:50.353Z,53.93
2019-02-15T12:32:16.820Z,54.51
2019-02-15T12:34:43.295Z,54.53
2019-02-15T12:37:09.679Z,54.57
2019-02-15T12:39:36.320Z,54.47
2019-02-15T12:42:02.702Z,58.04
2019-02-15T12:44:29.107Z,55.59
2019-02-15T12:46:55.528Z,55.92
2019-02-15T12:49:22.146Z,55.23
2019-02-15T12:51:48.861Z,54.60
2019-02-15T12:54:15.503Z,54.57
2019-02-15T12:56:42.010Z,54.54
2019-02-15T12:59:08.790Z,54.82
2019-02-15T13:01:48.701Z,54.05
2019-02-15T13:04:19.512Z,54.15
2019-02-15T13:06:46.983Z,54.28
2019-02-15T13:09:13.960Z,52.83
2019-02-15T13:11:41.530Z,52.48
2019-02-15T13:14:08.602Z,52.05
2019-02-15T13:16:35.218Z,53.08
2019-02-15T13:19:02.235Z,53.31
2019-02-15T13:21:29.947Z,52.75
2019-02-15T13:23:56.688Z,53.03
2019-02-15T13:26:23.370Z,52.88
2019-02-15T13:28:49.989Z,52.61
2019-02-15T13:31:16.482Z,51.25
2019-02-15T13:33:42.950Z,49.84
2019-02-15T13:36:09.744Z,50.66
2019-02-15T13:38:36.103Z,51.51
2019-02-15T13:41:03.743Z,51.77
2019-02-15T13:43:30.081Z,50.47
2019-02-15T13:45:56.415Z,49.13
2019-02-15T13:48:22.886Z,48.99
2019-02-15T13:50:49.383Z,49.21
2019-02-15T13:53:16.013Z,49.68
2019-02-15T13:55:42.390Z,50.30
2019-02-15T13:58:08.879Z,51.02
2019-02-15T14:00:36.544Z,49.58
2019-02-15T14:03:03.104Z,50.61
2019-02-15T14:05:29.635Z,52.03
2019-02-15T14:07:56.559Z,51.80
2019-02-15T14:10:22.920Z,50.00
2019-02-15T14:12:50.055Z,50.37
2019-02-15T14:15:17.040Z,47.91
2019-02-15T14:17:46.372Z,49.33
2019-02-15T14:20:12.931Z,47.81
2019-02-15T14:22:39.219Z,46.86
2019-02-15T14:25:08.190Z,47.23
2019-02-15T14:27:34.953Z,46.34
2019-02-15T14:30:02.045Z,47.94
2019-02-15T14:32:32.479Z,47.92
2019-02-15T14:34:59.171Z,48.72
2019-02-15T14:37:26.141Z,47.06
2019-02-15T14:39:53.171Z,47.54
2019-02-15T14:42:20.249Z,47.97
2019-02-15T14:44:47.041Z,47.08
2019-02-15T14:47:13.650Z,48.61
2019-02-15T14:49:40.083Z,47.78
2019-02-15T14:52:07.231Z,48.40
2019-02-15T14:54:33.942Z,48.49
2019-02-15T14:57:00.654Z,49.28
2019-02-15T14:59:28.673Z,49.68
2019-02-15T15:01:57.082Z,49.72
2019-02-15T15:04:24.142Z,49.29
2019-02-15T15:06:51.310Z,49.87
2019-02-15T15:09:18.183Z,49.66
2019-02-15T15:11:45.568Z,50.88
2019-02-15T15:14:12.368Z,50.37
2019-02-15T15:16:39.047Z,50.87
2019-02-15T15:19:05.598Z,50.85
2019-02-15T15:21:32.233Z,51.35
2019-02-15T15:23:58.883Z,51.70
2019-02-15T15:26:25.465Z,52.02
2019-02-15T15:28:52.448Z,51.44
2019-02-15T15:31:18.942Z,52.56
2019-02-15T15:33:45.547Z,52.15
2019-02-15T15:36:12.060Z,51.52
2019-02-15T15:38:38.669Z,52.24
2019-02-15T15:41:05.638Z,51.72
2019-02-15T15:43:32.717Z,52.51
2019-02-15T15:45:59.355Z,52.45
2019-02-15T15:48:26.123Z,52.90
2019-02-15T15:50:55.097Z,52.48
2019-02-15T15:53:21.460Z,52.69
2019-02-15T15:55:48.369Z,52.37
2019-02-15T15:58:15.206Z,53.17
2019-02-15T16:00:42.042Z,53.49
2019-02-15T16:03:10.593Z,53.69
2019-02-15T16:05:37.278Z,53.56
2019-02-15T16:08:04.093Z,53.93
2019-02-15T16:10:30.616Z,53.92
2019-02-15T16:12:56.990Z,53.47
2019-02-15T16:15:23.307Z,53.56
2019-02-15T16:17:49.683Z,53.96
2019-02-15T16:20:16.550Z,54.60
2019-02-15T16:22:43.257Z,54.38
2019-02-15T16:25:10.032Z,55.03
2019-02-15T16:27:36.810Z,55.05
2019-02-15T16:30:07.879Z,55.44
2019-02-15T16:32:34.781Z,55.47
2019-02-15T16:35:01.325Z,55.55
2019-02-15T16:37:27.843Z,56.08
2019-02-15T16:39:54.562Z,56.80
2019-02-15T16:42:21.026Z,57.22
2019-02-15T16:44:47.459Z,57.20
2019-02-15T16:47:13.964Z,57.71
2019-02-15T16:49:40.255Z,57.53
2019-02-15T16:52:06.561Z,57.82
2019-02-15T16:54:33.060Z,58.56
2019-02-15T16:56:59.726Z,58.43
2019-02-15T16:59:26.632Z,58.95
2019-02-15T17:01:53.268Z,59.58
2019-02-15T17:04:20.434Z,59.46
2019-02-15T17:06:47.004Z,59.98
2019-02-15T17:09:17.103Z,60.38
2019-02-15T17:11:43.976Z,60.95
2019-02-15T17:14:10.425Z,61.30
2019-02-15T17:16:36.927Z,61.68
2019-02-15T17:19:06.633Z,61.92
2019-02-15T17:21:35.416Z,62.20
2019-02-15T17:24:03.411Z,70.56
2019-02-15T17:26:29.937Z,62.78
2019-02-15T17:29:01.182Z,62.64
2019-02-15T17:31:32.129Z,62.82
2019-02-15T17:34:01.312Z,62.85
2019-02-15T17:36:27.959Z,63.26
2019-02-15T17:38:54.891Z,63.46
2019-02-15T17:41:22.977Z,63.46
2019-02-15T17:43:50.095Z,63.71
2019-02-15T17:46:22.610Z,63.69
2019-02-15T17:49:00.563Z,64.81
2019-02-15T17:51:22.291Z,64.40
2019-02-15T17:53:48.943Z,64.52
2019-02-15T17:56:15.549Z,64.51
2019-02-15T17:58:42.816Z,64.48
2019-02-15T18:01:13.130Z,64.41
2019-02-15T18:03:41.731Z,64.22
2019-02-15T18:06:08.828Z,64.23
2019-02-15T18:08:37.764Z,64.48
2019-02-15T18:11:04.433Z,64.23
2019-02-15T18:13:33.516Z,64.57
2019-02-15T18:16:00.085Z,64.72
2019-02-15T18:18:26.434Z,64.80
2019-02-15T18:20:52.915Z,65.00
2019-02-15T18:23:19.764Z,65.32
2019-02-15T18:25:46.199Z,65.23
2019-02-15T18:28:12.769Z,65.29
2019-02-15T18:30:39.178Z,65.40
2019-02-15T18:33:05.694Z,65.95
2019-02-15T18:35:32.372Z,66.06
2019-02-15T18:37:58.865Z,66.44
2019-02-15T18:40:25.163Z,66.24
2019-02-15T18:42:51.860Z,66.10
2019-02-15T18:45:18.179Z,66.59
2019-02-15T18:47:44.851Z,66.40
2019-02-15T18:50:11.475Z,66.36
2019-02-15T18:52:37.805Z,66.35
2019-02-15T18:55:07.007Z,66.41
2019-02-15T18:57:33.482Z,66.25
2019-02-15T19:03:24.303Z,66.17
2019-02-15T19:05:50.559Z,66.35
2019-02-15T19:11:27.972Z,66.33
2019-02-15T19:13:54.593Z,66.64
2019-02-15T19:16:20.849Z,66.68
2019-02-15T19:22:12.409Z,67.50
2019-02-15T19:27:50.276Z,68.04
2019-02-15T19:30:23.297Z,67.85
2019-02-15T19:36:15.853Z,69.47
2019-02-15T19:42:27.909Z,68.55
2019-02-15T19:48:06.766Z,68.92
2019-02-15T19:50:33.284Z,69.50
2019-02-15T19:53:00.188Z,69.53
2019-02-15T19:55:26.520Z,69.79
2019-02-15T19:57:53.964Z,69.95
2019-02-15T20:00:20.372Z,69.89
2019-02-15T20:02:47.180Z,70.16
2019-02-15T20:05:13.774Z,69.63
2019-02-15T20:07:40.673Z,68.64
2019-02-15T20:10:10.695Z,69.42
2019-02-15T20:12:37.243Z,68.99
2019-02-15T20:15:08.127Z,68.95
2019-02-15T20:17:34.844Z,68.60
2019-02-15T20:20:01.143Z,68.28
2019-02-15T20:22:27.559Z,68.53
2019-02-15T20:24:53.809Z,68.92
2019-02-15T20:30:44.479Z,67.91
2019-02-15T20:33:10.831Z,67.81
2019-02-15T20:39:01.190Z,66.35
2019-02-15T20:44:43.817Z,65.40
2019-02-15T20:47:10.467Z,64.75
2019-02-15T20:49:37.027Z,67.76
2019-02-15T20:52:03.705Z,63.99
2019-02-15T20:54:30.759Z,63.74
2019-02-15T20:56:57.321Z,63.82
2019-02-15T21:02:35.320Z,65.48
2019-02-15T21:05:02.088Z,65.47
2019-02-15T21:07:28.563Z,66.29
2019-02-15T21:09:55.266Z,66.42
2019-02-15T21:12:21.881Z,67.23
2019-02-15T21:14:48.366Z,67.31
2019-02-15T21:20:37.858Z,68.18
2019-02-15T21:23:04.434Z,68.42
2019-02-15T21:25:31.070Z,68.75
2019-02-15T21:27:57.402Z,69.04
2019-02-15T21:30:24.014Z,69.48
2019-02-15T21:32:50.471Z,70.05
2019-02-15T21:35:16.770Z,70.44
2019-02-15T21:37:42.977Z,70.34
2019-02-15T21:40:14.419Z,71.08
2019-02-15T21:42:40.729Z,77.01
2019-02-15T21:45:29.897Z,72.88
2019-02-15T21:47:56.579Z,71.53
2019-02-15T21:50:22.899Z,71.69
2019-02-15T21:52:49.661Z,71.98
2019-02-15T21:55:15.933Z,72.52
2019-02-15T21:57:42.250Z,72.25
2019-02-15T22:00:11.806Z,72.19
2019-02-15T22:02:38.207Z,72.59
2019-02-15T22:05:05.041Z,71.79
2019-02-15T22:07:31.406Z,71.76
2019-02-15T22:09:58.144Z,71.64
2019-02-15T22:12:24.566Z,71.24
2019-02-15T22:14:51.204Z,71.26
2019-02-15T22:17:17.413Z,70.99
2019-02-15T22:19:43.973Z,70.74
2019-02-15T22:22:10.559Z,70.15
2019-02-15T22:24:36.884Z,69.37
2019-02-15T22:27:05.353Z,69.15
2019-02-15T22:29:31.855Z,68.75
2019-02-15T22:31:58.436Z,68.23
2019-02-15T22:34:24.930Z,67.98
2019-02-15T22:36:51.326Z,67.45
2019-02-15T22:39:17.966Z,67.15
2019-02-15T22:44:55.218Z,65.93
2019-02-15T22:47:21.688Z,65.77
2019-02-15T22:49:48.459Z,65.88
2019-02-15T22:52:14.787Z,66.28
2019-02-15T22:54:41.042Z,66.70
2019-02-15T22:57:07.584Z,66.70
2019-02-15T22:59:35.903Z,67.07
2019-02-15T23:02:03.864Z,67.41
2019-02-15T23:04:30.608Z,67.31
2019-02-15T23:06:57.107Z,68.04
2019-02-15T23:09:24.565Z,68.05
2019-02-15T23:15:15.646Z,69.03
2019-02-15T23:20:54.709Z,68.28
2019-02-15T23:23:20.979Z,68.38
2019-02-15T23:29:22.769Z,69.24
2019-02-15T23:31:49.168Z,69.17
2019-02-15T23:34:15.510Z,68.89
2019-02-15T23:36:42.145Z,68.44
2019-02-15T23:39:08.917Z,69.29
2019-02-15T23:41:35.217Z,68.61
2019-02-15T23:44:02.168Z,68.97
2019-02-15T23:46:28.622Z,68.80
2019-02-15T23:48:55.193Z,69.22
2019-02-15T23:51:21.552Z,69.26
2019-02-15T23:53:48.059Z,68.98
2019-02-15T23:56:14.643Z,68.28
2019-02-15T23:58:41.169Z,68.53
